Aérodrome de Graulhet-Montdragon

METAR LFCK TAF LFCK
0 °C
°C
-
°C
21m
Idade
01:20:33
LT
00:20
UTC
0 ft

1.000

2.000

3.000

4.000

5.000

VFR
<?= Yii::t('app', 'Wind direction') ?> <?= Yii::t('app', 'of'); ?>
VAR
08:03
Nascer do sol
100%
Humidade
Tesoura de Vento
Fechado/Neve
Alcance visual RWY
Condição RWY
Vert. visibilidade
Min. visibilidade
CAVOK
Tendência
Correcção
Relatório especial
1036 hPa
QNH
METAR LFCK 040000Z AUTO 00000KT CAVOK 00/M00 Q1036
Claro
0 kt
0 kt
01:00
LIFR
5 kt
02:00
LIFR
5 kt
03:00
LIFR
5 kt
10 km+
Visibilidade
Nenhum
Tecto
Nenhum
Vento
metar-taf.com/LFCQ

Metar-Taf.com

Decodificador visual

Nós e terceiros acompanhamos seu comportamento na internet em nosso site com cookies. Se você continuar, nós assumimos que você concorda com nosso política de cookies.